Elkton, Minnesota
Current Conditions -  °F | °C
As of 3:56 AM on Sunday 21 Dec 2014 (Local Time) from KAUM Reporting Station
Haze Haze  
Wind Chill: 26°   Ceiling: 300
Heat Index: 32°   Visibility: 1.5mi
Dew Point: 32°   Wind: 7mph
Humidity: 100%   Direction: 160°SSE
Pressure: 29.99"   Gusts: NA
Location:  43.66°N, 92.71°W
Report Text: KAUM 210956Z AUTO 16006KT 1 1/2SM BR OVC003 00/00 A2999 RMK AO2
Loading
Personal Weather Stations






























Interactive Weather Map New forecast layout! Learn more

10-Day Weather Forecast

Advertisements
Track Severe Weather on mobile